Metar z pełnej godziny Komunikat METAR ze strony awiacja.imgw.pl Metar G00 EPKT METAR EPKT 172100Z 08003KT CAVOK 11/09 Q1021 =